クアラルンプール の空港の天気 - METARとTAF

クアラルンプール国際空港 ( WMKK / KUL ) - マレーシア スランゴール州セパン
飛行場実況気象(Metar)
観測時間12/10 05:00 MYT (12/09 21:00 UTC)
風向・風速静穏 0m/s
視程9000m
天気現象
少しの雲 雲底高度 520m
全天の4割程度の雲 雲底高度 4270m
全天の8割程度の雲 雲底高度 8530m
気温25℃
湿度94%
気圧1007hPa
METARWMKK 092100Z 00000KT 9000 FEW017CB SCT140 BKN280 25/24 Q1007 NOSIG
過去の天気等 Google飛行場航空写真 Wunderground天気予報

過去48時間のMETAR

飛行場予報(TAF)
発表時間: 12/10 01:00 MYT (12/09 17:00 UTC)
予報対象時間: 10日2時 MYT ~ 11日8時 MYT
風向・風速不定 2m/s
視程10km以上
少しの積乱雲 雲底高度 520m
全天の4割程度の雲 雲底高度 610m
10日14時 MYT ~ 10日18時 MYT に一時的に
風向・風速南西 4m/s
視程4000m
天気現象雷雨
少しの雲 雲底高度 300m
少しの積乱雲 雲底高度 490m
11日3時 MYT ~ 11日7時 MYT に 確率 30% で一時的に
視程5000m
天気現象雷雨
少しの雲 雲底高度 240m
少しの積乱雲 雲底高度 490m
TAF WMKK 091700Z 0918/1100 VRB03KT 9999 FEW017CB SCT020
TEMPO 1006/1010 23008KT 4000 TSRA FEW010 FEW016CB
PROB30 TEMPO 1019/1023 5000 TSRA FEW008 FEW016CB